HTMAN23 ZZZZ-OKDI
Flight info
| Callsign | HTMAN23 |
|---|---|
| Flight time | N/A |
| Altitude | 1000 |
| Route | HELICOPTER VFR MTA R01 |
| Aircraft | H500/L-V/N |
Departure
| Time | N/A |
|---|---|
| Airport | ZZZZ |
Arrival
| Time | 2026-04-22 15:44 |
|---|---|
| Airport | Udairi Army Air Field (OKDI) |
| Time | Latitude | Longitude | Altitude | Speed | Heading |
|---|---|---|---|---|---|
| 2026-04-22 13:46 | 27.50597 | 50.08109 | 56 ft | 0 kts | 284° |
| 2026-04-22 14:04 | 27.50595 | 50.08108 | 59 ft | 2 kts | 287° |
| 2026-04-22 14:04 | 27.50599 | 50.08076 | 118 ft | 16 kts | 280° |
| 2026-04-22 14:04 | 27.50394 | 50.07933 | 249 ft | 56 kts | 191° |
| 2026-04-22 14:04 | 27.50015 | 50.08161 | 363 ft | 76 kts | 106° |
| 2026-04-22 14:05 | 27.50155 | 50.08654 | 315 ft | 83 kts | 15° |
| 2026-04-22 14:05 | 27.50719 | 50.08669 | 262 ft | 74 kts | 316° |
| 2026-04-22 14:05 | 27.50843 | 50.08374 | 104 ft | 8 kts | 295° |
| 2026-04-22 14:06 | 27.50857 | 50.08335 | 72 ft | 4 kts | 297° |
| 2026-04-22 14:06 | 27.50861 | 50.08321 | 41 ft | 1 kts | 294° |
| 2026-04-22 14:06 | 27.50861 | 50.08320 | 36 ft | 0 kts | 292° |
| 2026-04-22 14:07 | 27.50861 | 50.08315 | 36 ft | 0 kts | 283° |
| 2026-04-22 14:07 | 27.50943 | 50.08317 | 178 ft | 32 kts | 305° |
| 2026-04-22 14:08 | 27.51271 | 50.08093 | 207 ft | 76 kts | 336° |
| 2026-04-22 14:08 | 27.51869 | 50.07826 | 154 ft | 110 kts | 330° |
| 2026-04-22 14:08 | 27.52461 | 50.07204 | 198 ft | 122 kts | 316° |
| 2026-04-22 14:08 | 27.53037 | 50.06458 | 263 ft | 127 kts | 314° |
| 2026-04-22 14:09 | 27.53631 | 50.05710 | 349 ft | 128 kts | 316° |
| 2026-04-22 14:09 | 27.54259 | 50.04991 | 425 ft | 128 kts | 319° |
| 2026-04-22 14:09 | 27.54909 | 50.04324 | 504 ft | 127 kts | 322° |
| 2026-04-22 14:09 | 27.55595 | 50.03684 | 550 ft | 127 kts | 324° |
| 2026-04-22 14:10 | 27.56299 | 50.03074 | 549 ft | 131 kts | 325° |
| 2026-04-22 14:10 | 27.57037 | 50.02469 | 543 ft | 132 kts | 326° |
| 2026-04-22 14:10 | 27.57794 | 50.01871 | 541 ft | 133 kts | 327° |
| 2026-04-22 14:10 | 27.58565 | 50.01282 | 543 ft | 133 kts | 328° |
| 2026-04-22 14:11 | 27.59335 | 50.00708 | 543 ft | 133 kts | 328° |
| 2026-04-22 14:11 | 27.60113 | 50.00139 | 543 ft | 133 kts | 329° |
| 2026-04-22 14:11 | 27.60887 | 49.99582 | 543 ft | 133 kts | 329° |
| 2026-04-22 14:11 | 27.61675 | 49.99022 | 541 ft | 133 kts | 329° |
| 2026-04-22 14:12 | 27.62463 | 49.98465 | 542 ft | 133 kts | 330° |
| 2026-04-22 14:12 | 27.63242 | 49.97920 | 544 ft | 133 kts | 330° |
| 2026-04-22 14:12 | 27.64033 | 49.97370 | 542 ft | 133 kts | 330° |
| 2026-04-22 14:12 | 27.64816 | 49.96830 | 542 ft | 133 kts | 330° |
| 2026-04-22 14:13 | 27.65605 | 49.96288 | 542 ft | 133 kts | 330° |
| 2026-04-22 14:13 | 27.66401 | 49.95743 | 547 ft | 135 kts | 332° |
| 2026-04-22 14:13 | 27.67228 | 49.95187 | 543 ft | 140 kts | 332° |
| 2026-04-22 14:13 | 27.68061 | 49.94618 | 544 ft | 142 kts | 331° |
| 2026-04-22 14:14 | 27.68920 | 49.94023 | 543 ft | 145 kts | 330° |
| 2026-04-22 14:14 | 27.69784 | 49.93422 | 543 ft | 146 kts | 330° |
| 2026-04-22 14:14 | 27.70643 | 49.92824 | 541 ft | 147 kts | 330° |
| 2026-04-22 14:14 | 27.71514 | 49.92220 | 543 ft | 147 kts | 331° |
| 2026-04-22 14:15 | 27.72385 | 49.91619 | 542 ft | 146 kts | 331° |
| 2026-04-22 14:15 | 27.73258 | 49.91019 | 544 ft | 147 kts | 331° |
| 2026-04-22 14:15 | 27.74122 | 49.90429 | 542 ft | 147 kts | 331° |
| 2026-04-22 14:15 | 27.75001 | 49.89831 | 545 ft | 147 kts | 331° |
| 2026-04-22 14:16 | 27.75883 | 49.89232 | 545 ft | 147 kts | 331° |
| 2026-04-22 14:16 | 27.76752 | 49.88642 | 546 ft | 147 kts | 331° |
| 2026-04-22 14:16 | 27.77636 | 49.88043 | 543 ft | 147 kts | 331° |
| 2026-04-22 14:16 | 27.78506 | 49.87454 | 544 ft | 147 kts | 331° |
| 2026-04-22 14:17 | 27.79384 | 49.86858 | 545 ft | 145 kts | 331° |
| 2026-04-22 14:17 | 27.80247 | 49.86271 | 545 ft | 144 kts | 332° |
| 2026-04-22 14:17 | 27.81096 | 49.85698 | 546 ft | 143 kts | 332° |
| 2026-04-22 14:17 | 27.81954 | 49.85119 | 547 ft | 143 kts | 332° |
| 2026-04-22 14:18 | 27.82809 | 49.84542 | 545 ft | 144 kts | 332° |
| 2026-04-22 14:18 | 27.83680 | 49.83955 | 546 ft | 146 kts | 332° |
| 2026-04-22 14:18 | 27.84545 | 49.83370 | 546 ft | 146 kts | 332° |
| 2026-04-22 14:18 | 27.85422 | 49.82777 | 545 ft | 146 kts | 332° |
| 2026-04-22 14:19 | 27.86279 | 49.82198 | 544 ft | 144 kts | 331° |
| 2026-04-22 14:19 | 27.87137 | 49.81616 | 546 ft | 143 kts | 331° |
| 2026-04-22 14:19 | 27.87989 | 49.81040 | 545 ft | 142 kts | 331° |
| 2026-04-22 14:19 | 27.88838 | 49.80467 | 546 ft | 142 kts | 331° |
| 2026-04-22 14:20 | 27.90529 | 49.79327 | 545 ft | 142 kts | 331° |
| 2026-04-22 14:20 | 27.91369 | 49.78760 | 546 ft | 141 kts | 331° |
| 2026-04-22 14:20 | 27.92215 | 49.78189 | 545 ft | 141 kts | 331° |
| 2026-04-22 14:21 | 27.93899 | 49.77051 | 544 ft | 141 kts | 331° |
| 2026-04-22 14:21 | 27.94743 | 49.76480 | 545 ft | 141 kts | 331° |
| 2026-04-22 14:22 | 27.96432 | 49.75323 | 547 ft | 143 kts | 331° |
| 2026-04-22 14:22 | 27.97283 | 49.74738 | 549 ft | 144 kts | 331° |
| 2026-04-22 14:22 | 27.98994 | 49.73560 | 546 ft | 143 kts | 330° |
| 2026-04-22 14:23 | 27.99832 | 49.72984 | 546 ft | 142 kts | 330° |
| 2026-04-22 14:23 | 28.00678 | 49.72406 | 546 ft | 141 kts | 331° |
| 2026-04-22 14:23 | 28.01522 | 49.71829 | 545 ft | 141 kts | 331° |
| 2026-04-22 14:23 | 28.02366 | 49.71254 | 545 ft | 141 kts | 332° |
| 2026-04-22 14:24 | 28.03202 | 49.70685 | 546 ft | 142 kts | 332° |
| 2026-04-22 14:24 | 28.04052 | 49.70107 | 546 ft | 142 kts | 332° |
| 2026-04-22 14:24 | 28.04903 | 49.69529 | 546 ft | 143 kts | 332° |
| 2026-04-22 14:24 | 28.05760 | 49.68946 | 546 ft | 143 kts | 332° |
| 2026-04-22 14:25 | 28.06609 | 49.68366 | 546 ft | 143 kts | 332° |
| 2026-04-22 14:25 | 28.07460 | 49.67786 | 545 ft | 143 kts | 332° |
| 2026-04-22 14:25 | 28.08313 | 49.67205 | 546 ft | 143 kts | 332° |
| 2026-04-22 14:25 | 28.09160 | 49.66629 | 544 ft | 143 kts | 332° |
| 2026-04-22 14:26 | 28.10012 | 49.66050 | 544 ft | 143 kts | 332° |
| 2026-04-22 14:26 | 28.10866 | 49.65469 | 544 ft | 143 kts | 332° |
| 2026-04-22 14:26 | 28.11710 | 49.64897 | 545 ft | 143 kts | 332° |
| 2026-04-22 14:26 | 28.12566 | 49.64316 | 546 ft | 143 kts | 332° |
| 2026-04-22 14:27 | 28.13420 | 49.63736 | 544 ft | 143 kts | 332° |
| 2026-04-22 14:27 | 28.14272 | 49.63157 | 546 ft | 143 kts | 332° |
| 2026-04-22 14:27 | 28.15114 | 49.62585 | 546 ft | 143 kts | 332° |
| 2026-04-22 14:27 | 28.15972 | 49.62002 | 544 ft | 143 kts | 332° |
| 2026-04-22 14:28 | 28.16816 | 49.61428 | 545 ft | 143 kts | 332° |
| 2026-04-22 14:28 | 28.17672 | 49.60846 | 544 ft | 143 kts | 332° |
| 2026-04-22 14:28 | 28.18525 | 49.60264 | 543 ft | 143 kts | 331° |
| 2026-04-22 14:28 | 28.19338 | 49.59633 | 547 ft | 143 kts | 328° |
| 2026-04-22 14:29 | 28.20136 | 49.58944 | 543 ft | 145 kts | 325° |
| 2026-04-22 14:29 | 28.20917 | 49.58239 | 546 ft | 144 kts | 323° |
| 2026-04-22 14:29 | 28.21697 | 49.57533 | 546 ft | 141 kts | 322° |
| 2026-04-22 14:29 | 28.22356 | 49.56733 | 551 ft | 140 kts | 311° |
| 2026-04-22 14:30 | 28.22934 | 49.55836 | 548 ft | 141 kts | 308° |
| 2026-04-22 14:30 | 28.23476 | 49.54899 | 552 ft | 142 kts | 307° |
| 2026-04-22 14:30 | 28.23996 | 49.53938 | 548 ft | 146 kts | 306° |
| 2026-04-22 14:30 | 28.24530 | 49.52949 | 549 ft | 147 kts | 306° |
| 2026-04-22 14:31 | 28.25064 | 49.51958 | 549 ft | 147 kts | 306° |
| 2026-04-22 14:31 | 28.25606 | 49.50971 | 547 ft | 146 kts | 307° |
| 2026-04-22 14:31 | 28.26136 | 49.50007 | 548 ft | 146 kts | 307° |
| 2026-04-22 14:31 | 28.26674 | 49.49021 | 547 ft | 147 kts | 306° |
| 2026-04-22 14:32 | 28.27217 | 49.48034 | 546 ft | 146 kts | 307° |
| 2026-04-22 14:32 | 28.27749 | 49.47064 | 549 ft | 147 kts | 307° |
| 2026-04-22 14:32 | 28.28296 | 49.46081 | 550 ft | 147 kts | 307° |
| 2026-04-22 14:32 | 28.28840 | 49.45099 | 550 ft | 147 kts | 307° |
| 2026-04-22 14:33 | 28.29382 | 49.44113 | 552 ft | 148 kts | 307° |
| 2026-04-22 14:33 | 28.29931 | 49.43112 | 548 ft | 149 kts | 307° |
| 2026-04-22 14:33 | 28.30484 | 49.42127 | 548 ft | 149 kts | 307° |
| 2026-04-22 14:33 | 28.31035 | 49.41144 | 553 ft | 146 kts | 308° |
| 2026-04-22 14:34 | 28.31576 | 49.40146 | 550 ft | 149 kts | 307° |
| 2026-04-22 14:34 | 28.32116 | 49.39142 | 553 ft | 150 kts | 306° |
| 2026-04-22 14:34 | 28.32676 | 49.38139 | 546 ft | 149 kts | 307° |
| 2026-04-22 14:34 | 28.33227 | 49.37155 | 554 ft | 146 kts | 307° |
| 2026-04-22 14:35 | 28.33763 | 49.36195 | 551 ft | 145 kts | 308° |
| 2026-04-22 14:35 | 28.34305 | 49.35221 | 554 ft | 146 kts | 307° |
| 2026-04-22 14:35 | 28.34864 | 49.34234 | 551 ft | 148 kts | 307° |
| 2026-04-22 14:35 | 28.35418 | 49.33270 | 549 ft | 147 kts | 307° |
| 2026-04-22 14:36 | 28.35791 | 49.32620 | 550 ft | 147 kts | 308° |
| 2026-04-22 14:36 | 28.36348 | 49.31647 | 553 ft | 147 kts | 307° |
| 2026-04-22 14:36 | 28.37114 | 49.30347 | 552 ft | 150 kts | 307° |
| 2026-04-22 14:36 | 28.37505 | 49.29686 | 550 ft | 150 kts | 308° |
| 2026-04-22 14:37 | 28.38082 | 49.28694 | 554 ft | 150 kts | 307° |
| 2026-04-22 14:37 | 28.38640 | 49.27712 | 550 ft | 148 kts | 308° |
| 2026-04-22 14:37 | 28.39191 | 49.26723 | 548 ft | 147 kts | 306° |
| 2026-04-22 14:37 | 28.39741 | 49.25749 | 556 ft | 150 kts | 308° |
| 2026-04-22 14:38 | 28.40317 | 49.24733 | 551 ft | 154 kts | 307° |
| 2026-04-22 14:38 | 28.40898 | 49.23709 | 553 ft | 154 kts | 308° |
| 2026-04-22 14:38 | 28.41471 | 49.22689 | 553 ft | 151 kts | 307° |
| 2026-04-22 14:38 | 28.42031 | 49.21701 | 555 ft | 149 kts | 307° |
| 2026-04-22 14:39 | 28.42596 | 49.20715 | 553 ft | 148 kts | 307° |
| 2026-04-22 14:39 | 28.43165 | 49.19735 | 551 ft | 148 kts | 307° |
| 2026-04-22 14:39 | 28.43735 | 49.18770 | 554 ft | 149 kts | 307° |
| 2026-04-22 14:40 | 28.44890 | 49.16814 | 552 ft | 148 kts | 307° |
| 2026-04-22 14:40 | 28.45459 | 49.15839 | 555 ft | 147 kts | 308° |
| 2026-04-22 14:40 | 28.46019 | 49.14875 | 556 ft | 148 kts | 307° |
| 2026-04-22 14:40 | 28.46596 | 49.13894 | 558 ft | 149 kts | 307° |
| 2026-04-22 14:41 | 28.47186 | 49.12915 | 559 ft | 150 kts | 307° |
| 2026-04-22 14:41 | 28.47765 | 49.11954 | 557 ft | 147 kts | 308° |
| 2026-04-22 14:41 | 28.48327 | 49.10980 | 555 ft | 147 kts | 308° |
| 2026-04-22 14:41 | 28.48883 | 49.09994 | 558 ft | 148 kts | 307° |
| 2026-04-22 14:42 | 28.49445 | 49.09010 | 558 ft | 148 kts | 307° |
| 2026-04-22 14:42 | 28.50003 | 49.08045 | 558 ft | 146 kts | 307° |
| 2026-04-22 14:42 | 28.50565 | 49.07083 | 555 ft | 145 kts | 308° |
| 2026-04-22 14:42 | 28.51116 | 49.06131 | 554 ft | 145 kts | 308° |
| 2026-04-22 14:43 | 28.51666 | 49.05165 | 559 ft | 146 kts | 308° |
| 2026-04-22 14:43 | 28.52222 | 49.04183 | 556 ft | 148 kts | 307° |
| 2026-04-22 14:43 | 28.52769 | 49.03206 | 554 ft | 148 kts | 307° |
| 2026-04-22 14:43 | 28.53320 | 49.02216 | 556 ft | 147 kts | 307° |
| 2026-04-22 14:44 | 28.53877 | 49.01243 | 558 ft | 146 kts | 307° |
| 2026-04-22 14:44 | 28.54430 | 49.00290 | 557 ft | 146 kts | 308° |
| 2026-04-22 14:44 | 28.54984 | 48.99320 | 556 ft | 146 kts | 308° |
| 2026-04-22 14:44 | 28.55523 | 48.98335 | 556 ft | 144 kts | 307° |
| 2026-04-22 14:45 | 28.56041 | 48.97380 | 556 ft | 143 kts | 306° |
| 2026-04-22 14:45 | 28.56577 | 48.96434 | 556 ft | 143 kts | 308° |
| 2026-04-22 14:45 | 28.57129 | 48.95465 | 556 ft | 147 kts | 308° |
| 2026-04-22 14:45 | 28.57681 | 48.94476 | 554 ft | 148 kts | 308° |
| 2026-04-22 14:46 | 28.58229 | 48.93478 | 558 ft | 146 kts | 306° |
| 2026-04-22 14:46 | 28.58767 | 48.92526 | 554 ft | 143 kts | 308° |
| 2026-04-22 14:46 | 28.59308 | 48.91568 | 555 ft | 143 kts | 307° |
| 2026-04-22 14:46 | 28.59845 | 48.90623 | 556 ft | 144 kts | 308° |
| 2026-04-22 14:47 | 28.60383 | 48.89652 | 556 ft | 146 kts | 308° |
| 2026-04-22 14:47 | 28.60925 | 48.88664 | 555 ft | 148 kts | 307° |
| 2026-04-22 14:47 | 28.61473 | 48.87678 | 556 ft | 146 kts | 308° |
| 2026-04-22 14:47 | 28.62017 | 48.86697 | 560 ft | 147 kts | 307° |
| 2026-04-22 14:48 | 28.62567 | 48.85715 | 556 ft | 149 kts | 307° |
| 2026-04-22 14:48 | 28.63127 | 48.84727 | 556 ft | 148 kts | 307° |
| 2026-04-22 14:48 | 28.63690 | 48.83734 | 559 ft | 150 kts | 308° |
| 2026-04-22 14:48 | 28.64249 | 48.82739 | 561 ft | 148 kts | 307° |
| 2026-04-22 14:49 | 28.64801 | 48.81743 | 556 ft | 149 kts | 308° |
| 2026-04-22 14:49 | 28.65344 | 48.80744 | 560 ft | 148 kts | 307° |
| 2026-04-22 14:49 | 28.65893 | 48.79753 | 563 ft | 150 kts | 307° |
| 2026-04-22 14:49 | 28.66460 | 48.78756 | 558 ft | 149 kts | 307° |
| 2026-04-22 14:50 | 28.67023 | 48.77775 | 560 ft | 148 kts | 307° |
| 2026-04-22 14:50 | 28.67590 | 48.76783 | 560 ft | 150 kts | 308° |
| 2026-04-22 14:50 | 28.68162 | 48.75778 | 564 ft | 155 kts | 308° |
| 2026-04-22 14:50 | 28.68752 | 48.74733 | 564 ft | 157 kts | 307° |
| 2026-04-22 14:51 | 28.69342 | 48.73701 | 557 ft | 155 kts | 307° |
| 2026-04-22 14:51 | 28.69934 | 48.72694 | 562 ft | 151 kts | 307° |
| 2026-04-22 14:51 | 28.70523 | 48.71703 | 565 ft | 151 kts | 308° |
| 2026-04-22 14:51 | 28.71113 | 48.70705 | 564 ft | 152 kts | 308° |
| 2026-04-22 14:52 | 28.71704 | 48.69700 | 565 ft | 151 kts | 307° |
| 2026-04-22 14:52 | 28.72285 | 48.68722 | 566 ft | 151 kts | 308° |
| 2026-04-22 14:52 | 28.72878 | 48.67722 | 560 ft | 152 kts | 308° |
| 2026-04-22 14:52 | 28.73461 | 48.66725 | 563 ft | 152 kts | 307° |
| 2026-04-22 14:53 | 28.74047 | 48.65731 | 561 ft | 151 kts | 307° |
| 2026-04-22 14:53 | 28.74638 | 48.64736 | 564 ft | 153 kts | 308° |
| 2026-04-22 14:53 | 28.75232 | 48.63729 | 562 ft | 152 kts | 308° |
| 2026-04-22 14:53 | 28.75816 | 48.62730 | 562 ft | 150 kts | 308° |
| 2026-04-22 14:54 | 28.76386 | 48.61750 | 563 ft | 149 kts | 307° |
| 2026-04-22 14:54 | 28.76962 | 48.60772 | 566 ft | 147 kts | 308° |
| 2026-04-22 14:54 | 28.77532 | 48.59798 | 563 ft | 146 kts | 308° |
| 2026-04-22 14:54 | 28.78089 | 48.58841 | 567 ft | 147 kts | 307° |
| 2026-04-22 14:55 | 28.78651 | 48.57872 | 565 ft | 144 kts | 308° |
| 2026-04-22 14:55 | 28.79200 | 48.56923 | 566 ft | 145 kts | 307° |
| 2026-04-22 14:55 | 28.79753 | 48.55968 | 567 ft | 145 kts | 308° |
| 2026-04-22 14:55 | 28.80316 | 48.54986 | 572 ft | 149 kts | 307° |
| 2026-04-22 14:56 | 28.80880 | 48.54011 | 566 ft | 148 kts | 307° |
| 2026-04-22 14:56 | 28.81449 | 48.53017 | 571 ft | 150 kts | 308° |
| 2026-04-22 14:56 | 28.82028 | 48.52008 | 570 ft | 152 kts | 307° |
| 2026-04-22 14:56 | 28.82608 | 48.51011 | 566 ft | 153 kts | 307° |
| 2026-04-22 14:57 | 28.83198 | 48.50004 | 567 ft | 151 kts | 308° |
| 2026-04-22 14:57 | 28.83784 | 48.49003 | 570 ft | 152 kts | 307° |
| 2026-04-22 14:57 | 28.84377 | 48.47994 | 566 ft | 154 kts | 307° |
| 2026-04-22 14:57 | 28.84975 | 48.46987 | 571 ft | 154 kts | 308° |
| 2026-04-22 14:58 | 28.85574 | 48.45974 | 570 ft | 153 kts | 307° |
| 2026-04-22 14:58 | 28.86175 | 48.44974 | 568 ft | 152 kts | 307° |
| 2026-04-22 14:58 | 28.86766 | 48.43988 | 570 ft | 152 kts | 308° |
| 2026-04-22 14:58 | 28.87364 | 48.42975 | 572 ft | 154 kts | 308° |
| 2026-04-22 14:59 | 28.87954 | 48.41976 | 574 ft | 154 kts | 307° |
| 2026-04-22 14:59 | 28.88559 | 48.40961 | 562 ft | 155 kts | 308° |
| 2026-04-22 14:59 | 28.89146 | 48.39959 | 543 ft | 151 kts | 307° |
| 2026-04-22 14:59 | 28.89710 | 48.38976 | 547 ft | 145 kts | 307° |
| 2026-04-22 15:00 | 28.90283 | 48.38029 | 545 ft | 144 kts | 315° |
| 2026-04-22 15:00 | 28.91162 | 48.37549 | 545 ft | 142 kts | 350° |
| 2026-04-22 15:00 | 28.91993 | 48.37459 | 544 ft | 140 kts | 359° |
| 2026-04-22 15:00 | 28.92935 | 48.37485 | 541 ft | 137 kts | 3° |
| 2026-04-22 15:01 | 28.93879 | 48.37545 | 543 ft | 135 kts | 5° |
| 2026-04-22 15:01 | 28.94815 | 48.37600 | 545 ft | 135 kts | 4° |
| 2026-04-22 15:01 | 28.95760 | 48.37639 | 544 ft | 136 kts | 3° |
| 2026-04-22 15:01 | 28.96699 | 48.37657 | 542 ft | 135 kts | 2° |
| 2026-04-22 15:02 | 28.97637 | 48.37659 | 544 ft | 134 kts | 1° |
| 2026-04-22 15:02 | 28.98564 | 48.37649 | 546 ft | 135 kts | 360° |
| 2026-04-22 15:02 | 28.99510 | 48.37631 | 545 ft | 135 kts | 360° |
| 2026-04-22 15:02 | 29.00451 | 48.37604 | 545 ft | 135 kts | 0° |
| 2026-04-22 15:03 | 29.01387 | 48.37572 | 546 ft | 136 kts | 0° |
| 2026-04-22 15:03 | 29.02348 | 48.37536 | 545 ft | 137 kts | 360° |
| 2026-04-22 15:03 | 29.03297 | 48.37496 | 544 ft | 136 kts | 359° |
| 2026-04-22 15:03 | 29.04237 | 48.37455 | 544 ft | 134 kts | 358° |
| 2026-04-22 15:04 | 29.05158 | 48.37414 | 546 ft | 132 kts | 359° |
| 2026-04-22 15:04 | 29.06077 | 48.37374 | 545 ft | 133 kts | 359° |
| 2026-04-22 15:04 | 29.07006 | 48.37334 | 545 ft | 133 kts | 358° |
| 2026-04-22 15:04 | 29.07929 | 48.37293 | 544 ft | 133 kts | 359° |
| 2026-04-22 15:05 | 29.08861 | 48.37251 | 541 ft | 133 kts | 359° |
| 2026-04-22 15:05 | 29.09778 | 48.37209 | 547 ft | 132 kts | 359° |
| 2026-04-22 15:05 | 29.10690 | 48.37168 | 546 ft | 132 kts | 359° |
| 2026-04-22 15:05 | 29.11608 | 48.37126 | 546 ft | 132 kts | 359° |
| 2026-04-22 15:06 | 29.12228 | 48.37098 | 547 ft | 132 kts | 358° |
| 2026-04-22 15:06 | 29.13451 | 48.37041 | 547 ft | 133 kts | 359° |
| 2026-04-22 15:06 | 29.14385 | 48.36997 | 545 ft | 134 kts | 358° |
| 2026-04-22 15:06 | 29.15322 | 48.36953 | 545 ft | 135 kts | 359° |
| 2026-04-22 15:07 | 29.16250 | 48.36909 | 545 ft | 135 kts | 359° |
| 2026-04-22 15:07 | 29.17198 | 48.36864 | 544 ft | 135 kts | 359° |
| 2026-04-22 15:07 | 29.18138 | 48.36820 | 545 ft | 135 kts | 359° |
| 2026-04-22 15:07 | 29.19070 | 48.36776 | 546 ft | 135 kts | 359° |
| 2026-04-22 15:08 | 29.20016 | 48.36732 | 546 ft | 135 kts | 359° |
| 2026-04-22 15:08 | 29.20947 | 48.36689 | 545 ft | 135 kts | 359° |
| 2026-04-22 15:08 | 29.21889 | 48.36647 | 546 ft | 135 kts | 360° |
| 2026-04-22 15:08 | 29.22825 | 48.36688 | 626 ft | 132 kts | 2° |
| 2026-04-22 15:09 | 29.23703 | 48.36498 | 727 ft | 125 kts | 334° |
| 2026-04-22 15:09 | 29.24343 | 48.35909 | 673 ft | 115 kts | 305° |
| 2026-04-22 15:09 | 29.24799 | 48.35131 | 485 ft | 118 kts | 296° |
| 2026-04-22 15:09 | 29.24900 | 48.34275 | 419 ft | 104 kts | 230° |
| 2026-04-22 15:10 | 29.24412 | 48.34166 | 162 ft | 57 kts | 138° |
| 2026-04-22 15:10 | 29.24178 | 48.34420 | 73 ft | 39 kts | 148° |
| 2026-04-22 15:10 | 29.24047 | 48.34533 | 46 ft | 19 kts | 152° |
| 2026-04-22 15:10 | 29.23941 | 48.34613 | 41 ft | 17 kts | 150° |
| 2026-04-22 15:11 | 29.23851 | 48.34682 | 20 ft | 15 kts | 147° |
| 2026-04-22 15:11 | 29.23764 | 48.34748 | 20 ft | 15 kts | 147° |
| 2026-04-22 15:11 | 29.23676 | 48.34814 | 20 ft | 15 kts | 147° |
| 2026-04-22 15:11 | 29.23590 | 48.34879 | 28 ft | 15 kts | 145° |
| 2026-04-22 15:12 | 29.23449 | 48.34833 | 98 ft | 38 kts | 239° |
| 2026-04-22 15:12 | 29.23486 | 48.34421 | 142 ft | 68 kts | 303° |
| 2026-04-22 15:12 | 29.23751 | 48.33894 | 199 ft | 82 kts | 306° |
| 2026-04-22 15:12 | 29.24114 | 48.33347 | 207 ft | 92 kts | 312° |
| 2026-04-22 15:13 | 29.24562 | 48.32774 | 199 ft | 99 kts | 314° |
| 2026-04-22 15:13 | 29.25036 | 48.32186 | 191 ft | 101 kts | 314° |
| 2026-04-22 15:13 | 29.25517 | 48.31588 | 192 ft | 102 kts | 314° |
| 2026-04-22 15:13 | 29.25991 | 48.30996 | 196 ft | 102 kts | 314° |
| 2026-04-22 15:14 | 29.26472 | 48.30390 | 191 ft | 103 kts | 313° |
| 2026-04-22 15:14 | 29.26951 | 48.29784 | 196 ft | 102 kts | 313° |
| 2026-04-22 15:14 | 29.27429 | 48.29176 | 195 ft | 102 kts | 313° |
| 2026-04-22 15:14 | 29.27908 | 48.28568 | 192 ft | 103 kts | 313° |
| 2026-04-22 15:15 | 29.28387 | 48.27960 | 191 ft | 102 kts | 313° |
| 2026-04-22 15:15 | 29.28859 | 48.27359 | 191 ft | 102 kts | 313° |
| 2026-04-22 15:15 | 29.29336 | 48.26750 | 192 ft | 102 kts | 313° |
| 2026-04-22 15:15 | 29.29812 | 48.26142 | 192 ft | 103 kts | 313° |
| 2026-04-22 15:16 | 29.30290 | 48.25536 | 192 ft | 102 kts | 313° |
| 2026-04-22 15:16 | 29.30767 | 48.24930 | 196 ft | 102 kts | 313° |
| 2026-04-22 15:16 | 29.31245 | 48.24321 | 194 ft | 103 kts | 313° |
| 2026-04-22 15:16 | 29.31716 | 48.23718 | 192 ft | 103 kts | 313° |
| 2026-04-22 15:17 | 29.32195 | 48.23105 | 196 ft | 103 kts | 313° |
| 2026-04-22 15:17 | 29.32674 | 48.22493 | 194 ft | 103 kts | 313° |
| 2026-04-22 15:17 | 29.33150 | 48.21884 | 194 ft | 102 kts | 313° |
| 2026-04-22 15:17 | 29.33624 | 48.21280 | 194 ft | 102 kts | 313° |
| 2026-04-22 15:18 | 29.34104 | 48.20668 | 197 ft | 103 kts | 313° |
| 2026-04-22 15:18 | 29.34577 | 48.20065 | 192 ft | 103 kts | 313° |
| 2026-04-22 15:18 | 29.35055 | 48.19451 | 191 ft | 103 kts | 313° |
| 2026-04-22 15:18 | 29.35532 | 48.18840 | 198 ft | 103 kts | 313° |
| 2026-04-22 15:19 | 29.36007 | 48.18229 | 193 ft | 103 kts | 313° |
| 2026-04-22 15:19 | 29.36482 | 48.17619 | 194 ft | 102 kts | 313° |
| 2026-04-22 15:19 | 29.36957 | 48.17010 | 195 ft | 103 kts | 313° |
| 2026-04-22 15:19 | 29.37437 | 48.16395 | 194 ft | 103 kts | 313° |
| 2026-04-22 15:20 | 29.37753 | 48.15990 | 200 ft | 103 kts | 313° |
| 2026-04-22 15:20 | 29.38386 | 48.15176 | 198 ft | 103 kts | 313° |
| 2026-04-22 15:20 | 29.38863 | 48.14563 | 194 ft | 103 kts | 313° |
| 2026-04-22 15:20 | 29.39339 | 48.13949 | 196 ft | 103 kts | 313° |
| 2026-04-22 15:21 | 29.39816 | 48.13334 | 195 ft | 103 kts | 313° |
| 2026-04-22 15:21 | 29.40133 | 48.12923 | 194 ft | 103 kts | 313° |
| 2026-04-22 15:21 | 29.40611 | 48.12306 | 195 ft | 104 kts | 313° |
| 2026-04-22 15:21 | 29.41090 | 48.11685 | 203 ft | 103 kts | 313° |
| 2026-04-22 15:22 | 29.41560 | 48.11076 | 196 ft | 103 kts | 313° |
| 2026-04-22 15:22 | 29.42035 | 48.10459 | 198 ft | 103 kts | 313° |
| 2026-04-22 15:22 | 29.42514 | 48.09839 | 202 ft | 104 kts | 313° |
| 2026-04-22 15:22 | 29.42990 | 48.09218 | 200 ft | 104 kts | 313° |
| 2026-04-22 15:23 | 29.43465 | 48.08595 | 196 ft | 103 kts | 313° |
| 2026-04-22 15:23 | 29.43935 | 48.07981 | 197 ft | 103 kts | 313° |
| 2026-04-22 15:23 | 29.44413 | 48.07364 | 203 ft | 103 kts | 313° |
| 2026-04-22 15:23 | 29.44891 | 48.06746 | 197 ft | 103 kts | 313° |
| 2026-04-22 15:24 | 29.45361 | 48.06128 | 195 ft | 103 kts | 313° |
| 2026-04-22 15:24 | 29.45827 | 48.05514 | 198 ft | 103 kts | 313° |
| 2026-04-22 15:24 | 29.46300 | 48.04890 | 192 ft | 103 kts | 313° |
| 2026-04-22 15:24 | 29.46770 | 48.04269 | 191 ft | 104 kts | 313° |
| 2026-04-22 15:25 | 29.47247 | 48.03639 | 190 ft | 104 kts | 313° |
| 2026-04-22 15:25 | 29.47716 | 48.03017 | 193 ft | 103 kts | 313° |
| 2026-04-22 15:25 | 29.48184 | 48.02393 | 192 ft | 103 kts | 312° |
| 2026-04-22 15:25 | 29.48655 | 48.01768 | 192 ft | 104 kts | 313° |
| 2026-04-22 15:26 | 29.49121 | 48.01133 | 194 ft | 103 kts | 307° |
| 2026-04-22 15:26 | 29.49472 | 48.00416 | 191 ft | 104 kts | 298° |
| 2026-04-22 15:26 | 29.49784 | 47.99657 | 194 ft | 104 kts | 297° |
| 2026-04-22 15:26 | 29.50081 | 47.98909 | 196 ft | 103 kts | 297° |
| 2026-04-22 15:27 | 29.50377 | 47.98168 | 193 ft | 103 kts | 297° |
| 2026-04-22 15:27 | 29.50664 | 47.97457 | 192 ft | 103 kts | 297° |
| 2026-04-22 15:27 | 29.50969 | 47.96711 | 194 ft | 103 kts | 298° |
| 2026-04-22 15:27 | 29.51274 | 47.95971 | 194 ft | 104 kts | 298° |
| 2026-04-22 15:28 | 29.51588 | 47.95213 | 193 ft | 105 kts | 298° |
| 2026-04-22 15:28 | 29.51659 | 47.94375 | 196 ft | 107 kts | 268° |
| 2026-04-22 15:28 | 29.51605 | 47.93528 | 194 ft | 106 kts | 275° |
| 2026-04-22 15:28 | 29.51699 | 47.92694 | 195 ft | 105 kts | 283° |
| 2026-04-22 15:29 | 29.51835 | 47.91878 | 195 ft | 106 kts | 284° |
| 2026-04-22 15:29 | 29.51985 | 47.91052 | 195 ft | 106 kts | 284° |
| 2026-04-22 15:29 | 29.52139 | 47.90219 | 200 ft | 106 kts | 285° |
| 2026-04-22 15:30 | 29.52453 | 47.88557 | 191 ft | 107 kts | 285° |
| 2026-04-22 15:30 | 29.52585 | 47.87802 | 387 ft | 88 kts | 285° |
| 2026-04-22 15:30 | 29.52693 | 47.87135 | 515 ft | 88 kts | 284° |
| 2026-04-22 15:30 | 29.52827 | 47.86403 | 518 ft | 99 kts | 285° |
| 2026-04-22 15:31 | 29.52976 | 47.85616 | 511 ft | 103 kts | 284° |
| 2026-04-22 15:31 | 29.53130 | 47.84787 | 508 ft | 106 kts | 284° |
| 2026-04-22 15:31 | 29.53283 | 47.83974 | 507 ft | 105 kts | 285° |
| 2026-04-22 15:31 | 29.53435 | 47.83146 | 505 ft | 105 kts | 284° |
| 2026-04-22 15:32 | 29.53586 | 47.82341 | 509 ft | 103 kts | 285° |
| 2026-04-22 15:32 | 29.53745 | 47.81543 | 512 ft | 102 kts | 290° |
| 2026-04-22 15:32 | 29.54017 | 47.80784 | 512 ft | 105 kts | 299° |
| 2026-04-22 15:32 | 29.54334 | 47.80017 | 511 ft | 106 kts | 299° |
| 2026-04-22 15:33 | 29.54659 | 47.79250 | 510 ft | 107 kts | 301° |
| 2026-04-22 15:33 | 29.54984 | 47.78482 | 512 ft | 107 kts | 300° |
| 2026-04-22 15:33 | 29.55311 | 47.77712 | 512 ft | 109 kts | 300° |
| 2026-04-22 15:33 | 29.55642 | 47.76933 | 510 ft | 108 kts | 300° |
| 2026-04-22 15:34 | 29.55975 | 47.76148 | 510 ft | 110 kts | 300° |
| 2026-04-22 15:34 | 29.56304 | 47.75374 | 511 ft | 107 kts | 299° |
| 2026-04-22 15:34 | 29.56629 | 47.74606 | 512 ft | 107 kts | 300° |
| 2026-04-22 15:34 | 29.56963 | 47.73824 | 514 ft | 111 kts | 300° |
| 2026-04-22 15:35 | 29.57298 | 47.73035 | 509 ft | 110 kts | 300° |
| 2026-04-22 15:35 | 29.57628 | 47.72255 | 510 ft | 107 kts | 300° |
| 2026-04-22 15:35 | 29.57955 | 47.71481 | 513 ft | 109 kts | 300° |
| 2026-04-22 15:35 | 29.58291 | 47.70693 | 512 ft | 111 kts | 300° |
| 2026-04-22 15:36 | 29.58627 | 47.69903 | 509 ft | 109 kts | 301° |
| 2026-04-22 15:36 | 29.58952 | 47.69136 | 511 ft | 107 kts | 301° |
| 2026-04-22 15:36 | 29.59283 | 47.68358 | 513 ft | 109 kts | 299° |
| 2026-04-22 15:36 | 29.59614 | 47.67577 | 512 ft | 108 kts | 300° |
| 2026-04-22 15:37 | 29.59942 | 47.66803 | 511 ft | 108 kts | 301° |
| 2026-04-22 15:37 | 29.60266 | 47.66039 | 513 ft | 107 kts | 300° |
| 2026-04-22 15:37 | 29.60594 | 47.65269 | 514 ft | 107 kts | 300° |
| 2026-04-22 15:37 | 29.60922 | 47.64496 | 513 ft | 107 kts | 300° |
| 2026-04-22 15:38 | 29.61247 | 47.63729 | 512 ft | 106 kts | 300° |
| 2026-04-22 15:38 | 29.61895 | 47.62205 | 511 ft | 106 kts | 300° |
| 2026-04-22 15:38 | 29.62227 | 47.61441 | 523 ft | 112 kts | 304° |
| 2026-04-22 15:39 | 29.62615 | 47.60613 | 508 ft | 124 kts | 302° |
| 2026-04-22 15:39 | 29.63019 | 47.59716 | 502 ft | 128 kts | 302° |
| 2026-04-22 15:39 | 29.63419 | 47.58796 | 497 ft | 129 kts | 301° |
| 2026-04-22 15:39 | 29.63774 | 47.57841 | 494 ft | 131 kts | 289° |
| 2026-04-22 15:40 | 29.63861 | 47.56803 | 499 ft | 133 kts | 274° |
| 2026-04-22 15:40 | 29.63830 | 47.55729 | 500 ft | 135 kts | 271° |
| 2026-04-22 15:40 | 29.63786 | 47.54647 | 492 ft | 135 kts | 271° |
| 2026-04-22 15:40 | 29.63746 | 47.53578 | 499 ft | 135 kts | 271° |
| 2026-04-22 15:41 | 29.63714 | 47.52494 | 499 ft | 135 kts | 272° |
| 2026-04-22 15:41 | 29.63803 | 47.51436 | 496 ft | 133 kts | 287° |
| 2026-04-22 15:41 | 29.64107 | 47.50434 | 498 ft | 131 kts | 301° |
| 2026-04-22 15:41 | 29.64563 | 47.49546 | 618 ft | 121 kts | 307° |
| 2026-04-22 15:42 | 29.65017 | 47.48775 | 744 ft | 116 kts | 311° |
| 2026-04-22 15:42 | 29.65486 | 47.48003 | 764 ft | 118 kts | 310° |
| 2026-04-22 15:42 | 29.65965 | 47.47198 | 767 ft | 126 kts | 309° |
| 2026-04-22 15:42 | 29.66456 | 47.46364 | 758 ft | 128 kts | 310° |
| 2026-04-22 15:43 | 29.66973 | 47.45513 | 756 ft | 130 kts | 311° |
| 2026-04-22 15:43 | 29.67488 | 47.44678 | 757 ft | 128 kts | 310° |
| 2026-04-22 15:43 | 29.68016 | 47.43854 | 746 ft | 128 kts | 314° |
| 2026-04-22 15:43 | 29.68720 | 47.43551 | 607 ft | 97 kts | 19° |
| 2026-04-22 15:44 | 29.69207 | 47.43577 | 465 ft | 41 kts | 5° |
| 2026-04-22 15:44 | 29.69364 | 47.43583 | 440 ft | 8 kts | 0° |
| 2026-04-22 15:44 | 29.69402 | 47.43541 | 442 ft | 11 kts | 272° |
| 2026-04-22 15:44 | 29.69397 | 47.43440 | 455 ft | 12 kts | 194° |
| 2026-04-22 15:45 | 29.69329 | 47.43421 | 469 ft | 16 kts | 192° |
| 2026-04-22 15:45 | 29.69193 | 47.43420 | 465 ft | 22 kts | 187° |
| 2026-04-22 15:45 | 29.69059 | 47.43423 | 450 ft | 14 kts | 188° |
| 2026-04-22 15:45 | 29.68985 | 47.43416 | 456 ft | 9 kts | 217° |
| 2026-04-22 15:46 | 29.68971 | 47.43386 | 441 ft | 1 kts | 278° |
| 2026-04-22 15:46 | 29.68967 | 47.43381 | 435 ft | 1 kts | 358° |
| 2026-04-22 15:46 | 29.68967 | 47.43377 | 428 ft | 0 kts | 358° |